Frem Nordica — OVIL2 — position and weather

sailwx.info

Track history (hours):
 
Tides and Currents Weather Stations Pressure Air Temp Water Temp Dewpoint Dewpoint Depression Visibility Wind Speed Wind Dir Waves Ship Positions

Frem Nordica

Last reported at 2016-Jul-28 23:33 UTC. Time now 2016-Jul-29 00:16 UTC.
Position N 54°17' E 011°31'.

Length 79 m; draft 3.8 m.

Type: Ship. MMSI: 220439000.

Date/timePositionNaut miles runAvg speedWind from/ knotsBaromVisibWave heightAir tempDewpointWater temp
2016-Jul-28 23:33N 54°17' E 011°31'8 8.4
2016-Jul-28 22:33N 54°21' E 011°44'8 8.1
2016-Jul-28 21:33N 54°25' E 011°55'8 8.3
2016-Jul-28 20:33N 54°31' E 012°06'9 8.5
2016-Jul-28 19:32N 54°39' E 012°13'19 1.3
2016-Jul-28 05:15N 54°54' E 012°32'7 9.7
2016-Jul-28 04:33N 54°48' E 012°25'10 9.6
2016-Jul-28 03:31N 54°40' E 012°15'9 9.0
2016-Jul-28 02:33N 54°33' E 012°08'9 8.5
2016-Jul-28 01:33N 54°30' E 011°54'9 9.3
2016-Jul-28 00:33N 54°30' E 011°38'9 8.8
2016-Jul-27 23:32N 54°31' E 011°23'8 8.6
2016-Jul-27 22:33N 54°34' E 011°09'10 9.8
2016-Jul-27 21:33N 54°34' E 010°52'27 9.1
2016-Jul-27 18:33N 54°22' E 010°10'3 3.4
2016-Jul-27 17:31N 54°22' E 010°04'5 0.4
2016-Jul-27 04:08N 54°21' E 009°55'4 7.0
2016-Jul-27 03:30N 54°22' E 010°03'3 3.6
2016-Jul-27 02:33N 54°22' E 010°08'2 1.8
2016-Jul-27 01:33N 54°23' E 010°11'22 7.5
2016-Jul-26 22:33N 54°35' E 010°44'8 7.9
2016-Jul-26 21:33N 54°36' E 010°57'8 8.4
2016-Jul-26 20:33N 54°36' E 011°12'9 8.5
2016-Jul-26 19:33N 54°33' E 011°25'8 8.2
2016-Jul-26 18:33N 54°31' E 011°39'8 8.1
2016-Jul-26 17:33N 54°30' E 011°53'7 7.5
2016-Jul-26 16:33N 54°31' E 012°06'11 8.4
2016-Jul-26 15:13N 54°40' E 012°17'6 8.3
2016-Jul-26 14:33N 54°45' E 012°22'27 2.3
2016-Jul-26 02:30N 55°12' E 012°11'6 6.3
2016-Jul-26 01:33N 55°08' E 012°19'7 6.8
2016-Jul-26 00:33N 55°03' E 012°28'9 7.1
2016-Jul-25 23:19N 54°55' E 012°33'7 9.5
2016-Jul-25 22:34N 54°49' E 012°26'9 9.4
2016-Jul-25 21:33N 54°41' E 012°16'9 9.1
2016-Jul-25 20:33N 54°33' E 012°08'8 7.7
2016-Jul-25 19:33N 54°30' E 011°56'9 8.8
2016-Jul-25 18:33N 54°31' E 011°41'9 8.5
2016-Jul-25 17:33N 54°33' E 011°27'8 8.5
2016-Jul-25 16:33N 54°37' E 011°14'8 8.0
2016-Jul-25 15:33N 54°40' E 011°01'8 8.1
2016-Jul-25 14:33N 54°40' E 010°47'9 9.1
2016-Jul-25 13:33N 54°44' E 010°33'9 8.9
2016-Jul-25 12:33N 54°50' E 010°21'9 9.0
2016-Jul-25 11:33N 54°56' E 010°10'3 0.1
2016-Jul-24 01:19N 54°58' E 010°06'7 9.1
2016-Jul-24 00:34N 54°53' E 010°15'9 8.5
2016-Jul-23 23:33N 54°48' E 010°26'9 8.8
2016-Jul-23 22:33N 54°43' E 010°39'9 9.4
2016-Jul-23 21:33N 54°40' E 010°54'10 9.7
2016-Jul-23 20:33N 54°37' E 011°10'10 9.6
2016-Jul-23 19:33N 54°33' E 011°25'9 8.6
2016-Jul-23 18:34N 54°31' E 011°39'9 8.6
2016-Jul-23 17:33N 54°30' E 011°54'8 8.3
2016-Jul-23 16:34N 54°33' E 012°08'9 8.7
2016-Jul-23 15:33N 54°40' E 012°16'16 8.1
2016-Jul-23 13:32N 54°54' E 012°32'9 6.9
2016-Jul-23 12:13N 55°03' E 012°30'5 7.7
2016-Jul-23 11:34N 55°06' E 012°23'8 8.1
2016-Jul-23 10:33N 55°11' E 012°12'2 1.7
2016-Jul-23 09:18N 55°13' E 012°10'0 0.0
2016-Jul-23 08:07N 55°13' E 012°10'0 0.0
2016-Jul-23 07:31N 55°13' E 012°10'0 0.0
2016-Jul-23 06:30N 55°13' E 012°10'0 0.0
2016-Jul-23 04:31N 55°13' E 012°10'1 1.5
2016-Jul-23 03:33N 55°12' E 012°11'9 9.4
2016-Jul-23 02:33N 55°05' E 012°24'9 9.4
2016-Jul-23 01:33N 54°58' E 012°35'10 9.6
2016-Jul-23 00:33N 54°50' E 012°27'1010.1
2016-Jul-22 23:33N 54°42' E 012°17'9 9.4
2016-Jul-22 22:33N 54°34' E 012°08'8 7.6
2016-Jul-22 21:32N 54°30' E 011°57'9 8.9
2016-Jul-22 20:33N 54°31' E 011°42'9 8.5
2016-Jul-22 19:33N 54°33' E 011°27'8 8.1
2016-Jul-22 18:33N 54°37' E 011°15'8 7.8
2016-Jul-22 17:33N 54°40' E 011°03'8 7.9
2016-Jul-22 16:33N 54°40' E 010°49'8 8.1
2016-Jul-22 15:33N 54°43' E 010°36'9 8.7
2016-Jul-22 14:33N 54°48' E 010°24'2 0.1
2016-Jul-21 22:09N 54°49' E 010°21'6 8.8
2016-Jul-21 21:26N 54°46' E 010°30'8 8.8
2016-Jul-21 20:33N 54°42' E 010°42'10 9.8
2016-Jul-21 19:33N 54°40' E 010°58'1010.3
2016-Jul-21 18:33N 54°35' E 011°14'1010.0
2016-Jul-21 17:33N 54°32' E 011°30'9 9.2
2016-Jul-21 16:33N 54°30' E 011°46'9 8.8
2016-Jul-21 15:33N 54°30' E 012°01'9 8.7
2016-Jul-21 14:29N 54°37' E 012°11'9 9.2
2016-Jul-21 13:32N 54°45' E 012°19'8 8.2
2016-Jul-21 12:33N 54°51' E 012°27'7 7.5
2016-Jul-21 11:33N 54°58' E 012°34'7 7.2
2016-Jul-21 10:33N 55°04' E 012°28'8 7.9
2016-Jul-21 09:33N 55°09' E 012°18'6 1.5
2016-Jul-21 05:30N 55°13' E 012°10'0 0.1
2016-Jul-21 02:33N 55°13' E 012°10'5 4.7
2016-Jul-21 01:33N 55°12' E 012°18'6 5.6
2016-Jul-21 00:33N 55°15' E 012°27'6 6.4
2016-Jul-20 23:34N 55°21' E 012°32'7 7.1
2016-Jul-20 22:34N 55°27' E 012°37'7 7.4
2016-Jul-20 21:34N 55°34' E 012°42'8 7.8
2016-Jul-20 20:34N 55°42' E 012°41'8 8.3
2016-Jul-20 19:33N 55°50' E 012°40'8 8.2
2016-Jul-20 18:34N 55°58' E 012°38'7 6.8
2016-Jul-20 17:34N 56°05' E 012°35'7 7.2
2016-Jul-20 16:33N 56°09' E 012°25'9 8.8
2016-Jul-20 15:33N 56°12' E 012°10'12 9.0
2016-Jul-20 14:15N 56°14' E 011°49'3 0.2
2016-Jul-19 22:33N 56°14' E 011°54'18 8.1
2016-Jul-19 20:23N 56°10' E 012°25'8 9.9
2016-Jul-19 19:33N 56°05' E 012°37'9 9.2
2016-Jul-19 18:33N 55°56' E 012°43'9 8.9
2016-Jul-19 17:33N 55°48' E 012°48'9 9.0
2016-Jul-19 16:33N 55°40' E 012°56'9 8.9
2016-Jul-19 15:33N 55°33' E 012°47'9 9.0
2016-Jul-19 14:33N 55°25' E 012°37'9 8.7
2016-Jul-19 13:33N 55°18' E 012°29'8 7.6
2016-Jul-19 12:33N 55°13' E 012°19'3 0.3
2016-Jul-19 02:19N 55°11' E 012°15'3 3.9
2016-Jul-19 01:32N 55°11' E 012°21'2 2.1
2016-Jul-19 00:33N 55°09' E 012°19'  
Track history (hours):
 
Tides and Currents Weather Stations Pressure Air Temp Water Temp Dewpoint Dewpoint Depression Visibility Wind Speed Wind Dir Waves Ship Positions

Frem Nordica

Last reported at 2016-Jul-28 23:33 UTC. Time now 2016-Jul-29 00:16 UTC.
Position N 54°17' E 011°31'.

Length 79 m; draft 3.8 m.

Type: Ship. MMSI: 220439000.

Date/timePositionNaut miles runAvg speedWind from/ knotsBaromVisibWave heightAir tempDewpointWater temp
2016-Jul-28 23:33N 54°17' E 011°31'8 8.4
2016-Jul-28 22:33N 54°21' E 011°44'8 8.1
2016-Jul-28 21:33N 54°25' E 011°55'8 8.3
2016-Jul-28 20:33N 54°31' E 012°06'9 8.5
2016-Jul-28 19:32N 54°39' E 012°13'19 1.3
2016-Jul-28 05:15N 54°54' E 012°32'7 9.7
2016-Jul-28 04:33N 54°48' E 012°25'10 9.6
2016-Jul-28 03:31N 54°40' E 012°15'9 9.0
2016-Jul-28 02:33N 54°33' E 012°08'9 8.5
2016-Jul-28 01:33N 54°30' E 011°54'9 9.3
2016-Jul-28 00:33N 54°30' E 011°38'9 8.8
2016-Jul-27 23:32N 54°31' E 011°23'8 8.6
2016-Jul-27 22:33N 54°34' E 011°09'10 9.8
2016-Jul-27 21:33N 54°34' E 010°52'27 9.1
2016-Jul-27 18:33N 54°22' E 010°10'3 3.4
2016-Jul-27 17:31N 54°22' E 010°04'5 0.4
2016-Jul-27 04:08N 54°21' E 009°55'4 7.0
2016-Jul-27 03:30N 54°22' E 010°03'3 3.6
2016-Jul-27 02:33N 54°22' E 010°08'2 1.8
2016-Jul-27 01:33N 54°23' E 010°11'22 7.5
2016-Jul-26 22:33N 54°35' E 010°44'8 7.9
2016-Jul-26 21:33N 54°36' E 010°57'8 8.4
2016-Jul-26 20:33N 54°36' E 011°12'9 8.5
2016-Jul-26 19:33N 54°33' E 011°25'8 8.2
2016-Jul-26 18:33N 54°31' E 011°39'8 8.1
2016-Jul-26 17:33N 54°30' E 011°53'7 7.5
2016-Jul-26 16:33N 54°31' E 012°06'11 8.4
2016-Jul-26 15:13N 54°40' E 012°17'6 8.3
2016-Jul-26 14:33N 54°45' E 012°22'27 2.3
2016-Jul-26 02:30N 55°12' E 012°11'6 6.3
2016-Jul-26 01:33N 55°08' E 012°19'7 6.8
2016-Jul-26 00:33N 55°03' E 012°28'9 7.1
2016-Jul-25 23:19N 54°55' E 012°33'7 9.5
2016-Jul-25 22:34N 54°49' E 012°26'9 9.4
2016-Jul-25 21:33N 54°41' E 012°16'9 9.1
2016-Jul-25 20:33N 54°33' E 012°08'8 7.7
2016-Jul-25 19:33N 54°30' E 011°56'9 8.8
2016-Jul-25 18:33N 54°31' E 011°41'9 8.5
2016-Jul-25 17:33N 54°33' E 011°27'8 8.5
2016-Jul-25 16:33N 54°37' E 011°14'8 8.0
2016-Jul-25 15:33N 54°40' E 011°01'8 8.1
2016-Jul-25 14:33N 54°40' E 010°47'9 9.1
2016-Jul-25 13:33N 54°44' E 010°33'9 8.9
2016-Jul-25 12:33N 54°50' E 010°21'9 9.0
2016-Jul-25 11:33N 54°56' E 010°10'3 0.1
2016-Jul-24 01:19N 54°58' E 010°06'7 9.1
2016-Jul-24 00:34N 54°53' E 010°15'9 8.5
2016-Jul-23 23:33N 54°48' E 010°26'9 8.8
2016-Jul-23 22:33N 54°43' E 010°39'9 9.4
2016-Jul-23 21:33N 54°40' E 010°54'10 9.7
2016-Jul-23 20:33N 54°37' E 011°10'10 9.6
2016-Jul-23 19:33N 54°33' E 011°25'9 8.6
2016-Jul-23 18:34N 54°31' E 011°39'9 8.6
2016-Jul-23 17:33N 54°30' E 011°54'8 8.3
2016-Jul-23 16:34N 54°33' E 012°08'9 8.7
2016-Jul-23 15:33N 54°40' E 012°16'16 8.1
2016-Jul-23 13:32N 54°54' E 012°32'9 6.9
2016-Jul-23 12:13N 55°03' E 012°30'5 7.7
2016-Jul-23 11:34N 55°06' E 012°23'8 8.1
2016-Jul-23 10:33N 55°11' E 012°12'2 1.7
2016-Jul-23 09:18N 55°13' E 012°10'0 0.0
2016-Jul-23 08:07N 55°13' E 012°10'0 0.0
2016-Jul-23 07:31N 55°13' E 012°10'0 0.0
2016-Jul-23 06:30N 55°13' E 012°10'0 0.0
2016-Jul-23 04:31N 55°13' E 012°10'1 1.5
2016-Jul-23 03:33N 55°12' E 012°11'9 9.4
2016-Jul-23 02:33N 55°05' E 012°24'9 9.4
2016-Jul-23 01:33N 54°58' E 012°35'10 9.6
2016-Jul-23 00:33N 54°50' E 012°27'1010.1
2016-Jul-22 23:33N 54°42' E 012°17'9 9.4
2016-Jul-22 22:33N 54°34' E 012°08'8 7.6
2016-Jul-22 21:32N 54°30' E 011°57'9 8.9
2016-Jul-22 20:33N 54°31' E 011°42'9 8.5
2016-Jul-22 19:33N 54°33' E 011°27'8 8.1
2016-Jul-22 18:33N 54°37' E 011°15'8 7.8
2016-Jul-22 17:33N 54°40' E 011°03'8 7.9
2016-Jul-22 16:33N 54°40' E 010°49'8 8.1
2016-Jul-22 15:33N 54°43' E 010°36'9 8.7
2016-Jul-22 14:33N 54°48' E 010°24'2 0.1
2016-Jul-21 22:09N 54°49' E 010°21'6 8.8
2016-Jul-21 21:26N 54°46' E 010°30'8 8.8
2016-Jul-21 20:33N 54°42' E 010°42'10 9.8
2016-Jul-21 19:33N 54°40' E 010°58'1010.3
2016-Jul-21 18:33N 54°35' E 011°14'1010.0
2016-Jul-21 17:33N 54°32' E 011°30'9 9.2
2016-Jul-21 16:33N 54°30' E 011°46'9 8.8
2016-Jul-21 15:33N 54°30' E 012°01'9 8.7
2016-Jul-21 14:29N 54°37' E 012°11'9 9.2
2016-Jul-21 13:32N 54°45' E 012°19'8 8.2
2016-Jul-21 12:33N 54°51' E 012°27'7 7.5
2016-Jul-21 11:33N 54°58' E 012°34'7 7.2
2016-Jul-21 10:33N 55°04' E 012°28'8 7.9
2016-Jul-21 09:33N 55°09' E 012°18'6 1.5
2016-Jul-21 05:30N 55°13' E 012°10'0 0.1
2016-Jul-21 02:33N 55°13' E 012°10'5 4.7
2016-Jul-21 01:33N 55°12' E 012°18'6 5.6
2016-Jul-21 00:33N 55°15' E 012°27'6 6.4
2016-Jul-20 23:34N 55°21' E 012°32'7 7.1
2016-Jul-20 22:34N 55°27' E 012°37'7 7.4
2016-Jul-20 21:34N 55°34' E 012°42'8 7.8
2016-Jul-20 20:34N 55°42' E 012°41'8 8.3
2016-Jul-20 19:33N 55°50' E 012°40'8 8.2
2016-Jul-20 18:34N 55°58' E 012°38'7 6.8
2016-Jul-20 17:34N 56°05' E 012°35'7 7.2
2016-Jul-20 16:33N 56°09' E 012°25'9 8.8
2016-Jul-20 15:33N 56°12' E 012°10'12 9.0
2016-Jul-20 14:15N 56°14' E 011°49'3 0.2
2016-Jul-19 22:33N 56°14' E 011°54'18 8.1
2016-Jul-19 20:23N 56°10' E 012°25'8 9.9
2016-Jul-19 19:33N 56°05' E 012°37'9 9.2
2016-Jul-19 18:33N 55°56' E 012°43'9 8.9
2016-Jul-19 17:33N 55°48' E 012°48'9 9.0
2016-Jul-19 16:33N 55°40' E 012°56'9 8.9
2016-Jul-19 15:33N 55°33' E 012°47'9 9.0
2016-Jul-19 14:33N 55°25' E 012°37'9 8.7
2016-Jul-19 13:33N 55°18' E 012°29'8 7.6
2016-Jul-19 12:33N 55°13' E 012°19'3 0.3
2016-Jul-19 02:19N 55°11' E 012°15'3 3.9
2016-Jul-19 01:32N 55°11' E 012°21'2 2.1
2016-Jul-19 00:33N 55°09' E 012°19'  

Dump ship's entire track history